createdAt,value
2024-04-25T00:00:12.080Z,10.80
2024-04-25T00:02:38.682Z,9.50
2024-04-25T00:05:05.517Z,9.90
2024-04-25T00:07:32.042Z,9.50
2024-04-25T00:09:58.475Z,9.80
2024-04-25T00:12:24.955Z,9.30
2024-04-25T00:14:51.484Z,9.70
2024-04-25T00:17:18.126Z,10.40
2024-04-25T00:19:44.800Z,11.90
2024-04-25T00:22:11.291Z,10.60
2024-04-25T00:24:37.841Z,12.90
2024-04-25T00:27:04.341Z,13.10
2024-04-25T00:29:30.834Z,10.70
2024-04-25T00:31:57.355Z,13.10
2024-04-25T00:34:23.821Z,11.70
2024-04-25T00:36:50.325Z,13.40
2024-04-25T00:39:16.974Z,13.70
2024-04-25T00:41:43.488Z,11.30
2024-04-25T00:44:10.222Z,10.90
2024-04-25T00:46:38.719Z,11.00
2024-04-25T00:49:07.345Z,13.10
2024-04-25T00:51:34.558Z,12.30
2024-04-25T00:54:01.130Z,11.10
2024-04-25T00:56:28.349Z,11.60
2024-04-25T00:58:58.322Z,12.40
2024-04-25T01:03:53.052Z,11.60
2024-04-25T01:06:22.102Z,13.60
2024-04-25T01:08:48.749Z,12.20
2024-04-25T01:11:15.319Z,11.80
2024-04-25T01:13:42.094Z,12.60
2024-04-25T01:16:10.768Z,12.20
2024-04-25T01:18:37.297Z,14.10
2024-04-25T01:21:03.926Z,14.50
2024-04-25T01:23:39.647Z,12.70
2024-04-25T01:26:11.022Z,14.10
2024-04-25T01:28:39.655Z,12.00
2024-04-25T01:31:07.411Z,12.50
2024-04-25T01:33:36.505Z,11.70
2024-04-25T01:36:03.813Z,12.80
2024-04-25T01:38:30.538Z,15.10
2024-04-25T01:40:57.027Z,14.30
2024-04-25T01:43:23.787Z,16.30
2024-04-25T01:45:50.395Z,11.10
2024-04-25T01:48:17.050Z,12.80
2024-04-25T01:50:43.641Z,12.00
2024-04-25T01:53:10.324Z,15.30
2024-04-25T01:55:37.706Z,12.60
2024-04-25T01:58:04.334Z,12.90
2024-04-25T02:00:30.891Z,13.50
2024-04-25T02:02:57.392Z,12.50
2024-04-25T02:05:23.922Z,12.00
2024-04-25T02:07:50.848Z,12.90
2024-04-25T02:10:17.369Z,13.50
2024-04-25T02:12:43.936Z,15.20
2024-04-25T02:15:10.550Z,14.40
2024-04-25T02:17:41.036Z,13.10
2024-04-25T02:20:27.609Z,12.70
2024-04-25T02:23:14.829Z,13.60
2024-04-25T02:25:41.573Z,12.90
2024-04-25T02:28:08.929Z,12.80
2024-04-25T02:30:35.437Z,13.10
2024-04-25T02:33:01.998Z,13.10
2024-04-25T02:35:28.531Z,14.70
2024-04-25T02:37:55.059Z,13.70
2024-04-25T02:40:21.746Z,15.30
2024-04-25T02:42:48.276Z,14.50
2024-04-25T02:45:14.726Z,15.00
2024-04-25T02:47:41.239Z,17.50
2024-04-25T02:50:11.422Z,14.70
2024-04-25T02:52:39.463Z,17.10
2024-04-25T02:55:06.551Z,15.40
2024-04-25T02:57:33.304Z,16.60
2024-04-25T02:59:59.753Z,13.00
2024-04-25T03:02:26.927Z,15.20
2024-04-25T03:04:53.462Z,14.70
2024-04-25T03:07:19.886Z,13.80
2024-04-25T03:09:46.371Z,14.50
2024-04-25T03:12:12.935Z,15.80
2024-04-25T03:14:39.560Z,13.40
2024-04-25T03:17:06.114Z,12.90
2024-04-25T03:19:32.604Z,14.40
2024-04-25T03:21:59.104Z,15.10
2024-04-25T03:24:26.237Z,16.70
2024-04-25T03:26:52.733Z,15.00
2024-04-25T03:29:19.181Z,15.60
2024-04-25T03:31:45.924Z,17.00
2024-04-25T03:34:12.421Z,14.50
2024-04-25T03:36:38.911Z,14.50
2024-04-25T03:39:05.352Z,14.40
2024-04-25T03:41:33.663Z,14.10
2024-04-25T03:44:00.285Z,16.40
2024-04-25T03:46:26.801Z,18.30
2024-04-25T03:48:53.361Z,15.20
2024-04-25T03:51:19.858Z,15.10
2024-04-25T03:53:46.409Z,15.60
2024-04-25T03:56:13.032Z,16.40
2024-04-25T03:58:40.815Z,16.40
2024-04-25T04:01:07.389Z,14.60
2024-04-25T04:03:33.857Z,16.70
2024-04-25T04:06:00.332Z,16.00
2024-04-25T04:08:27.434Z,14.30
2024-04-25T04:10:54.040Z,17.80
2024-04-25T04:13:20.543Z,15.70
2024-04-25T04:15:47.108Z,15.20
2024-04-25T04:18:13.765Z,16.60
2024-04-25T04:20:41.060Z,15.20
2024-04-25T04:23:07.597Z,15.30
2024-04-25T04:25:34.174Z,14.80
2024-04-25T04:28:00.703Z,15.80
2024-04-25T04:30:27.207Z,15.70
2024-04-25T04:32:53.893Z,15.80
2024-04-25T04:35:20.516Z,18.10
2024-04-25T04:37:47.078Z,14.70
2024-04-25T04:40:13.772Z,17.20
2024-04-25T04:45:09.819Z,18.60
2024-04-25T04:47:37.167Z,15.30
2024-04-25T04:50:03.823Z,14.10
2024-04-25T04:52:33.295Z,15.10
2024-04-25T04:54:59.865Z,16.10
2024-04-25T04:57:26.466Z,17.80
2024-04-25T04:59:53.045Z,19.60
2024-04-25T05:02:19.672Z,17.30
2024-04-25T05:04:48.491Z,22.00
2024-04-25T05:07:15.029Z,21.90
2024-04-25T05:09:41.604Z,19.00
2024-04-25T05:12:08.042Z,20.30
2024-04-25T05:14:34.732Z,20.40
2024-04-25T05:17:01.272Z,19.30
2024-04-25T05:19:27.762Z,19.30
2024-04-25T05:21:56.418Z,21.90
2024-04-25T05:24:22.983Z,20.20
2024-04-25T05:26:49.500Z,20.70
2024-04-25T05:29:16.055Z,21.10
2024-04-25T05:31:42.572Z,22.30
2024-04-25T05:34:09.166Z,23.10
2024-04-25T05:36:35.780Z,19.80
2024-04-25T05:39:02.352Z,19.70
2024-04-25T05:41:28.927Z,19.50
2024-04-25T05:43:55.450Z,21.40
2024-04-25T05:46:22.618Z,20.70
2024-04-25T05:48:49.162Z,18.70
2024-04-25T05:51:15.861Z,20.30
2024-04-25T05:53:42.602Z,21.50
2024-04-25T05:56:09.317Z,20.00
2024-04-25T05:58:37.211Z,18.50
2024-04-25T06:01:04.243Z,19.80
2024-04-25T06:03:30.818Z,18.10
2024-04-25T06:05:57.347Z,18.00
2024-04-25T06:08:23.873Z,20.10
2024-04-25T06:10:50.426Z,18.60
2024-04-25T06:13:18.800Z,20.60
2024-04-25T06:15:45.363Z,25.40
2024-04-25T06:18:12.164Z,19.60
2024-04-25T06:20:39.007Z,22.00
2024-04-25T06:23:06.480Z,20.30
2024-04-25T06:25:33.123Z,18.30
2024-04-25T06:27:59.668Z,19.90
2024-04-25T06:30:26.294Z,19.30
2024-04-25T06:32:53.156Z,18.60
2024-04-25T06:35:19.822Z,18.80
2024-04-25T06:37:47.835Z,18.80
2024-04-25T06:40:15.032Z,17.60
2024-04-25T06:42:41.628Z,17.90
2024-04-25T06:45:08.288Z,19.00
2024-04-25T06:47:35.010Z,17.80
2024-04-25T06:50:01.628Z,16.60
2024-04-25T06:52:28.377Z,15.30
2024-04-25T06:54:54.945Z,14.20
2024-04-25T06:57:21.545Z,11.40
2024-04-25T06:59:51.302Z,11.90
2024-04-25T07:02:20.236Z,10.70
2024-04-25T07:04:47.485Z,10.90
2024-04-25T07:07:13.970Z,13.20
2024-04-25T07:09:40.564Z,11.50
2024-04-25T07:12:07.623Z,10.40
2024-04-25T07:14:34.221Z,10.10
2024-04-25T07:17:00.886Z,11.20
2024-04-25T07:19:27.337Z,11.90
2024-04-25T07:21:54.194Z,10.00
2024-04-25T07:24:22.264Z,9.60
2024-04-25T07:26:49.114Z,14.00
2024-04-25T07:29:16.307Z,10.70
2024-04-25T07:31:42.910Z,11.20
2024-04-25T07:34:10.051Z,10.40
2024-04-25T07:36:37.201Z,11.50
2024-04-25T07:39:05.003Z,10.00
2024-04-25T07:41:33.130Z,12.20
2024-04-25T07:43:59.812Z,10.20
2024-04-25T07:47:19.880Z,11.50
2024-04-25T07:49:46.452Z,12.30
2024-04-25T07:52:13.038Z,11.30
2024-04-25T07:54:39.550Z,10.70
2024-04-25T07:57:06.228Z,10.40
2024-04-25T07:59:32.738Z,12.00
2024-04-25T08:01:59.334Z,10.20
2024-04-25T08:04:26.025Z,12.30
2024-04-25T08:06:52.645Z,10.20
2024-04-25T08:09:19.263Z,10.80
2024-04-25T08:11:45.834Z,10.30
2024-04-25T08:14:12.529Z,10.20
2024-04-25T08:16:39.095Z,10.20
2024-04-25T08:19:05.791Z,11.90
2024-04-25T08:21:32.338Z,9.50
2024-04-25T08:23:58.736Z,13.00
2024-04-25T08:26:25.228Z,9.70
2024-04-25T08:28:51.855Z,11.70
2024-04-25T08:31:18.363Z,9.10
2024-04-25T08:33:45.280Z,9.00
2024-04-25T08:36:11.950Z,8.70
2024-04-25T08:38:40.808Z,39.20
2024-04-25T08:41:07.810Z,8.40
2024-04-25T08:43:43.203Z,8.50
2024-04-25T08:46:17.151Z,10.00
2024-04-25T08:48:45.473Z,8.20
2024-04-25T08:51:14.404Z,8.50
2024-04-25T08:53:42.184Z,9.30
2024-04-25T08:56:08.937Z,9.10
2024-04-25T08:58:35.584Z,10.40
2024-04-25T09:01:03.814Z,10.20
2024-04-25T09:03:30.633Z,9.70
2024-04-25T09:05:57.610Z,9.40
2024-04-25T09:08:24.496Z,8.70
2024-04-25T09:10:51.236Z,9.80
2024-04-25T09:13:19.681Z,8.70
2024-04-25T09:15:46.286Z,8.90
2024-04-25T09:18:12.909Z,7.60
2024-04-25T09:20:39.771Z,7.60
2024-04-25T09:23:06.910Z,7.80
2024-04-25T09:25:33.810Z,7.60
2024-04-25T09:28:03.434Z,8.90
2024-04-25T09:32:58.860Z,8.60
2024-04-25T09:35:25.591Z,10.50
2024-04-25T09:37:52.971Z,9.30
2024-04-25T09:40:19.503Z,9.10
2024-04-25T09:42:46.782Z,9.40
2024-04-25T09:45:13.938Z,8.40
2024-04-25T09:47:46.122Z,9.00
2024-04-25T09:50:29.385Z,9.40
2024-04-25T09:53:04.725Z,9.20
2024-04-25T09:55:39.226Z,11.90
2024-04-25T09:58:28.265Z,9.40
2024-04-25T10:00:56.235Z,10.40
2024-04-25T10:03:23.539Z,12.60
2024-04-25T10:05:50.631Z,11.80
2024-04-25T10:08:17.311Z,11.60
2024-04-25T10:10:44.767Z,11.90
2024-04-25T10:13:17.548Z,11.00
2024-04-25T10:15:49.943Z,13.10
2024-04-25T10:18:16.658Z,13.00
2024-04-25T10:20:43.423Z,12.20
2024-04-25T10:23:12.898Z,14.10
2024-04-25T10:25:39.615Z,13.80
2024-04-25T10:28:06.946Z,24.60
2024-04-25T10:30:36.362Z,14.30
2024-04-25T10:33:03.418Z,13.70
2024-04-25T10:35:37.935Z,13.90
2024-04-25T10:38:04.837Z,15.50
2024-04-25T10:40:31.376Z,12.90
2024-04-25T10:43:04.175Z,12.50
2024-04-25T10:45:33.207Z,14.60
2024-04-25T10:48:00.605Z,23.90
2024-04-25T10:50:27.841Z,16.50
2024-04-25T10:52:56.699Z,26.30
2024-04-25T10:55:24.240Z,23.80
2024-04-25T10:57:50.714Z,19.00
2024-04-25T11:00:17.294Z,15.00
2024-04-25T11:02:43.884Z,31.60
2024-04-25T11:05:10.585Z,24.90
2024-04-25T11:07:37.903Z,20.40
2024-04-25T11:10:06.211Z,18.30
2024-04-25T11:12:32.821Z,16.30
2024-04-25T11:15:00.379Z,21.40
2024-04-25T11:17:29.114Z,18.70
2024-04-25T11:20:01.878Z,17.20
2024-04-25T11:22:36.241Z,16.70
2024-04-25T11:25:20.204Z,18.20
2024-04-25T11:27:49.413Z,19.50
2024-04-25T11:30:16.093Z,16.40
2024-04-25T11:32:47.297Z,18.90
2024-04-25T11:35:19.645Z,17.40
2024-04-25T11:37:46.252Z,18.40
2024-04-25T11:40:13.103Z,16.70
2024-04-25T11:42:39.815Z,20.10
2024-04-25T11:45:07.004Z,30.20
2024-04-25T11:47:36.412Z,45.70
2024-04-25T11:50:04.459Z,23.60
2024-04-25T11:52:30.947Z,22.30
2024-04-25T11:54:57.411Z,22.20
2024-04-25T11:57:23.993Z,22.60
2024-04-25T11:59:50.546Z,28.00
2024-04-25T12:02:17.168Z,24.30
2024-04-25T12:04:43.923Z,21.00
2024-04-25T12:07:10.850Z,20.40
2024-04-25T12:09:37.384Z,19.90
2024-04-25T12:12:04.181Z,21.30
2024-04-25T12:14:30.824Z,22.20
2024-04-25T12:16:57.469Z,19.60
2024-04-25T12:19:24.209Z,18.70
2024-04-25T12:21:51.047Z,19.00
2024-04-25T12:24:17.534Z,19.20
2024-04-25T12:26:45.458Z,22.10
2024-04-25T12:29:12.490Z,19.90
2024-04-25T12:31:39.245Z,19.00
2024-04-25T12:34:06.381Z,18.30
2024-04-25T12:36:34.162Z,16.50
2024-04-25T12:39:01.181Z,17.50
2024-04-25T12:41:27.797Z,17.60
2024-04-25T12:43:56.628Z,17.70
2024-04-25T12:46:23.075Z,18.20
2024-04-25T12:48:49.687Z,18.00
2024-04-25T12:51:16.382Z,19.10
2024-04-25T12:53:42.835Z,18.70
2024-04-25T12:56:09.396Z,17.00
2024-04-25T12:58:41.328Z,16.30
2024-04-25T13:01:08.905Z,17.20
2024-04-25T13:03:35.496Z,15.70
2024-04-25T13:06:02.036Z,14.80
2024-04-25T13:08:28.607Z,14.80
2024-04-25T13:10:55.124Z,13.90
2024-04-25T13:13:23.255Z,13.30
2024-04-25T13:15:49.995Z,12.30
2024-04-25T13:18:18.083Z,11.80
2024-04-25T13:20:45.811Z,12.00
2024-04-25T13:23:12.319Z,11.50
2024-04-25T13:25:38.804Z,11.40
2024-04-25T13:28:05.524Z,10.20
2024-04-25T13:30:33.374Z,10.10
2024-04-25T13:33:00.401Z,10.20
2024-04-25T13:35:27.458Z,10.40
2024-04-25T13:37:55.363Z,11.00
2024-04-25T13:40:22.858Z,10.70
2024-04-25T13:42:49.405Z,10.20
2024-04-25T13:45:15.956Z,10.30
2024-04-25T13:47:42.611Z,10.40
2024-04-25T13:50:09.470Z,8.80
2024-04-25T13:52:36.027Z,8.00
2024-04-25T13:55:02.905Z,9.80
2024-04-25T13:57:31.119Z,9.30
2024-04-25T13:59:57.576Z,7.60
2024-04-25T14:02:24.201Z,8.00
2024-04-25T14:04:50.657Z,8.50
2024-04-25T14:07:18.197Z,7.70
2024-04-25T14:09:44.795Z,7.60
2024-04-25T14:12:11.448Z,8.00
2024-04-25T14:14:38.091Z,8.60
2024-04-25T14:17:04.684Z,7.80
2024-04-25T14:19:31.112Z,8.00
2024-04-25T14:21:57.624Z,7.30
2024-04-25T14:24:24.218Z,7.20
2024-04-25T14:27:09.431Z,7.10
2024-04-25T14:29:38.593Z,7.50
2024-04-25T14:32:05.714Z,7.20
2024-04-25T14:34:32.642Z,7.00
2024-04-25T14:36:59.201Z,7.40
2024-04-25T14:39:26.152Z,7.50
2024-04-25T14:41:52.903Z,7.40
2024-04-25T14:44:19.528Z,7.80
2024-04-25T14:46:46.143Z,7.90
2024-04-25T14:49:12.677Z,9.00
2024-04-25T14:51:39.186Z,8.50
2024-04-25T14:54:05.701Z,9.30
2024-04-25T14:56:32.226Z,9.10
2024-04-25T14:58:58.716Z,8.70
2024-04-25T15:01:25.345Z,8.10
2024-04-25T15:03:51.937Z,7.90
2024-04-25T15:06:18.427Z,8.70
2024-04-25T15:08:45.094Z,8.10
2024-04-25T15:11:12.918Z,7.50
2024-04-25T15:13:40.317Z,9.30
2024-04-25T15:16:07.172Z,9.40
2024-04-25T15:18:33.717Z,8.30
2024-04-25T15:21:02.385Z,8.40
2024-04-25T15:23:29.003Z,9.40
2024-04-25T15:25:55.553Z,8.70
2024-04-25T15:28:22.179Z,8.90
2024-04-25T15:30:48.662Z,97.20
2024-04-25T15:33:15.359Z,15.00
2024-04-25T15:35:42.039Z,9.20
2024-04-25T15:38:08.640Z,9.30
2024-04-25T15:40:35.281Z,10.00
2024-04-25T15:43:01.905Z,10.40
2024-04-25T15:45:28.368Z,48.70
2024-04-25T15:47:55.188Z,26.70
2024-04-25T15:50:22.151Z,7.60
2024-04-25T15:52:48.719Z,7.70
2024-04-25T15:55:15.314Z,8.60
2024-04-25T15:57:41.848Z,8.00
2024-04-25T16:00:09.817Z,24.00
2024-04-25T16:02:36.454Z,40.50
2024-04-25T16:05:03.126Z,11.20
2024-04-25T16:07:29.769Z,69.70
2024-04-25T16:09:56.279Z,11.30
2024-04-25T16:12:23.064Z,8.20
2024-04-25T16:14:51.093Z,8.60
2024-04-25T16:17:17.719Z,8.60
2024-04-25T16:19:44.324Z,8.90
2024-04-25T16:22:10.817Z,9.50
2024-04-25T16:24:37.307Z,32.10
2024-04-25T16:27:07.203Z,15.20
2024-04-25T16:29:34.381Z,23.30
2024-04-25T16:32:00.943Z,22.10
2024-04-25T16:34:27.473Z,26.20
2024-04-25T16:36:54.447Z,99.70
2024-04-25T16:39:21.090Z,64.10
2024-04-25T16:41:47.654Z,72.60
2024-04-25T16:44:14.104Z,110.80
2024-04-25T16:46:41.324Z,30.40
2024-04-25T16:49:08.024Z,23.10
2024-04-25T16:51:34.492Z,26.10
2024-04-25T16:54:00.987Z,28.30
2024-04-25T16:56:27.663Z,30.70
2024-04-25T16:58:54.761Z,12.80
2024-04-25T17:01:21.221Z,10.00
2024-04-25T17:03:47.817Z,11.40
2024-04-25T17:06:14.824Z,11.90
2024-04-25T17:08:41.444Z,12.50
2024-04-25T17:11:22.607Z,12.20
2024-04-25T17:13:55.942Z,42.50
2024-04-25T17:16:22.629Z,11.70
2024-04-25T17:18:49.664Z,11.50
2024-04-25T17:21:17.691Z,8.60
2024-04-25T17:23:45.681Z,10.80
2024-04-25T17:26:12.281Z,9.80
2024-04-25T17:28:38.711Z,9.70
2024-04-25T17:31:05.226Z,9.60
2024-04-25T17:33:31.885Z,10.30
2024-04-25T17:35:58.809Z,12.30
2024-04-25T17:38:25.435Z,11.50
2024-04-25T17:40:52.022Z,9.60
2024-04-25T17:43:18.429Z,7.40
2024-04-25T17:45:44.900Z,10.20
2024-04-25T17:48:11.584Z,7.10
2024-04-25T17:50:38.223Z,14.40
2024-04-25T17:53:06.216Z,8.80
2024-04-25T17:55:32.764Z,7.00
2024-04-25T17:57:59.227Z,8.10
2024-04-25T18:00:25.796Z,11.50
2024-04-25T18:02:55.138Z,8.30
2024-04-25T18:05:22.114Z,9.30
2024-04-25T18:07:48.646Z,9.80
2024-04-25T18:10:15.224Z,8.10
2024-04-25T18:12:43.458Z,9.60
2024-04-25T18:15:10.479Z,9.20
2024-04-25T18:17:37.222Z,10.60
2024-04-25T18:20:05.968Z,9.00
2024-04-25T18:22:34.239Z,10.70
2024-04-25T18:25:00.744Z,10.60
2024-04-25T18:27:27.497Z,14.30
2024-04-25T18:29:54.027Z,14.40
2024-04-25T18:32:20.573Z,14.60
2024-04-25T18:34:47.444Z,16.40
2024-04-25T18:37:14.023Z,16.00
2024-04-25T18:39:40.531Z,16.80
2024-04-25T18:42:09.817Z,31.40
2024-04-25T18:44:36.969Z,26.30
2024-04-25T18:47:03.960Z,40.60
2024-04-25T18:49:31.615Z,70.70
2024-04-25T18:51:59.597Z,42.70
2024-04-25T18:54:26.941Z,37.20
2024-04-25T18:56:53.531Z,34.70
2024-04-25T18:59:20.203Z,40.90
2024-04-25T19:01:46.816Z,47.30
2024-04-25T19:04:13.626Z,48.20
2024-04-25T19:06:43.135Z,52.60
2024-04-25T19:09:12.355Z,63.20
2024-04-25T19:11:40.428Z,75.20
2024-04-25T19:14:09.013Z,79.40
2024-04-25T19:16:36.283Z,78.90
2024-04-25T19:19:02.814Z,68.00
2024-04-25T19:21:43.567Z,68.00
2024-04-25T19:24:10.930Z,82.20
2024-04-25T19:26:37.963Z,80.60
2024-04-25T19:29:04.772Z,76.60
2024-04-25T19:31:41.983Z,70.10
2024-04-25T19:34:09.198Z,84.60
2024-04-25T19:36:36.487Z,80.40
2024-04-25T19:39:03.202Z,50.20
2024-04-25T19:41:33.023Z,57.50
2024-04-25T19:43:59.474Z,69.70
2024-04-25T19:46:25.996Z,73.50
2024-04-25T19:48:52.624Z,81.60
2024-04-25T19:51:19.793Z,81.80
2024-04-25T19:53:46.375Z,80.50
2024-04-25T19:56:14.326Z,80.60
2024-04-25T19:58:42.590Z,70.40
2024-04-25T20:01:10.005Z,75.90
2024-04-25T20:03:37.053Z,68.30
2024-04-25T20:06:09.350Z,68.40
2024-04-25T20:08:35.834Z,65.40
2024-04-25T20:11:02.362Z,66.20
2024-04-25T20:13:28.893Z,65.80
2024-04-25T20:15:56.976Z,72.30
2024-04-25T20:18:43.127Z,82.20
2024-04-25T20:21:09.622Z,77.60
2024-04-25T20:23:40.731Z,82.50
2024-04-25T20:26:08.969Z,88.40
2024-04-25T20:28:37.337Z,83.00
2024-04-25T20:31:04.711Z,76.80
2024-04-25T20:33:31.587Z,86.20
2024-04-25T20:35:58.327Z,87.80
2024-04-25T20:38:24.981Z,86.10
2024-04-25T20:40:52.359Z,84.90
2024-04-25T20:43:18.814Z,93.00
2024-04-25T20:45:45.541Z,87.50
2024-04-25T20:48:12.148Z,90.70
2024-04-25T20:50:38.725Z,98.60
2024-04-25T20:53:05.228Z,88.00
2024-04-25T20:55:31.752Z,81.00
2024-04-25T20:57:58.299Z,80.50
2024-04-25T21:00:24.835Z,78.20
2024-04-25T21:02:51.361Z,84.40
2024-04-25T21:05:18.142Z,75.90
2024-04-25T21:07:44.882Z,71.80
2024-04-25T21:10:12.679Z,71.00
2024-04-25T21:12:39.160Z,75.20
2024-04-25T21:15:06.340Z,69.80
2024-04-25T21:17:35.110Z,71.20
2024-04-25T21:20:01.655Z,71.20
2024-04-25T21:22:28.213Z,66.00
2024-04-25T21:24:54.729Z,61.40
2024-04-25T21:27:21.248Z,57.10
2024-04-25T21:29:47.776Z,59.50
2024-04-25T21:32:15.246Z,56.60
2024-04-25T21:34:47.588Z,53.30
2024-04-25T21:37:14.099Z,47.10
2024-04-25T21:39:40.587Z,39.70
2024-04-25T21:42:07.715Z,42.50
2024-04-25T21:44:34.637Z,40.70
2024-04-25T21:47:01.182Z,38.60
2024-04-25T21:49:27.824Z,38.40
2024-04-25T21:51:54.512Z,39.40
2024-04-25T21:54:21.129Z,40.10
2024-04-25T21:56:47.778Z,40.40
2024-04-25T21:59:15.120Z,34.50
2024-04-25T22:01:52.449Z,37.10
2024-04-25T22:04:20.239Z,31.50
2024-04-25T22:06:47.435Z,36.00
2024-04-25T22:09:14.011Z,36.50
2024-04-25T22:11:40.687Z,34.30
2024-04-25T22:14:07.403Z,38.40
2024-04-25T22:16:33.874Z,33.60
2024-04-25T22:19:00.440Z,34.30
2024-04-25T22:21:27.579Z,35.20
2024-04-25T22:23:55.079Z,32.20
2024-04-25T22:26:21.742Z,35.70
2024-04-25T22:28:48.302Z,36.70
2024-04-25T22:31:14.837Z,39.10
2024-04-25T22:33:41.431Z,38.30
2024-04-25T22:36:09.719Z,33.90
2024-04-25T22:38:36.292Z,33.10
2024-04-25T22:41:02.840Z,40.90
2024-04-25T22:43:29.228Z,39.60
2024-04-25T22:45:55.729Z,42.10
2024-04-25T22:48:25.364Z,37.50
2024-04-25T22:50:52.051Z,41.40
2024-04-25T22:53:18.679Z,37.70
2024-04-25T22:55:45.207Z,39.60
2024-04-25T22:58:11.748Z,36.10
2024-04-25T23:00:38.241Z,34.60
2024-04-25T23:03:04.905Z,38.20
2024-04-25T23:05:35.421Z,36.80
2024-04-25T23:08:02.182Z,36.70
2024-04-25T23:10:28.700Z,36.60
2024-04-25T23:12:55.274Z,41.10
2024-04-25T23:15:21.970Z,35.90
2024-04-25T23:17:49.201Z,34.90
2024-04-25T23:20:16.486Z,29.60
2024-04-25T23:22:43.057Z,34.90
2024-04-25T23:25:09.464Z,33.60
2024-04-25T23:27:35.891Z,33.20
2024-04-25T23:30:02.487Z,38.40
2024-04-25T23:32:29.123Z,39.20
2024-04-25T23:34:55.729Z,35.30
2024-04-25T23:37:22.243Z,32.10
2024-04-25T23:39:48.823Z,31.40
2024-04-25T23:42:16.010Z,31.30
2024-04-25T23:44:43.665Z,32.90
2024-04-25T23:47:10.231Z,34.40
2024-04-25T23:49:36.747Z,35.00
2024-04-25T23:52:03.179Z,35.70
2024-04-25T23:54:29.676Z,36.10
2024-04-25T23:56:56.316Z,35.80
2024-04-25T23:59:23.049Z,31.50
